createdAt,value
2022-10-18T00:00:44.257Z,98.34
2022-10-18T00:03:10.869Z,99.11
2022-10-18T00:05:40.397Z,99.53
2022-10-18T00:08:06.969Z,99.79
2022-10-18T00:10:33.694Z,100.00
2022-10-18T00:13:00.375Z,99.78
2022-10-18T00:15:26.967Z,99.32
2022-10-18T00:17:53.616Z,98.92
2022-10-18T00:20:20.218Z,99.49
2022-10-18T00:22:46.901Z,99.04
2022-10-18T00:25:13.662Z,98.72
2022-10-18T00:27:40.335Z,99.25
2022-10-18T00:30:07.384Z,98.95
2022-10-18T00:32:38.503Z,98.06
2022-10-18T00:35:05.745Z,98.88
2022-10-18T00:37:32.877Z,98.55
2022-10-18T00:39:59.465Z,98.89
2022-10-18T00:42:32.414Z,99.23
2022-10-18T00:45:10.709Z,98.92
2022-10-18T00:47:37.339Z,98.39
2022-10-18T00:50:06.127Z,99.30
2022-10-18T00:52:38.837Z,99.67
2022-10-18T00:55:05.913Z,98.81
2022-10-18T00:57:32.985Z,99.01
2022-10-18T00:59:59.670Z,99.37
2022-10-18T01:02:26.417Z,100.00
2022-10-18T01:04:53.127Z,100.00
2022-10-18T01:07:27.588Z,100.00
2022-10-18T01:10:08.688Z,100.00
2022-10-18T01:12:44.495Z,100.00
2022-10-18T01:15:13.505Z,100.00
2022-10-18T01:17:58.932Z,100.00
2022-10-18T01:20:52.208Z,100.00
2022-10-18T01:23:50.929Z,100.00
2022-10-18T01:26:48.067Z,100.00
2022-10-18T01:29:26.478Z,100.00
2022-10-18T01:32:01.313Z,100.00
2022-10-18T01:34:29.016Z,100.00
2022-10-18T01:36:55.767Z,100.00
2022-10-18T01:39:34.389Z,100.00
2022-10-18T01:42:01.862Z,100.00
2022-10-18T01:44:29.501Z,100.00
2022-10-18T01:46:56.391Z,100.00
2022-10-18T01:49:23.734Z,100.00
2022-10-18T01:51:50.352Z,100.00
2022-10-18T01:54:23.841Z,100.00
2022-10-18T01:57:07.864Z,100.00
2022-10-18T01:59:43.341Z,100.00
2022-10-18T02:02:23.681Z,99.80
2022-10-18T02:05:08.782Z,100.00
2022-10-18T02:08:00.105Z,99.91
2022-10-18T02:10:50.213Z,99.65
2022-10-18T02:13:19.024Z,99.58
2022-10-18T02:15:47.534Z,99.90
2022-10-18T02:18:17.661Z,100.00
2022-10-18T02:20:44.336Z,99.87
2022-10-18T02:23:11.251Z,99.78
2022-10-18T02:25:40.669Z,99.65
2022-10-18T02:28:07.356Z,99.63
2022-10-18T02:30:41.073Z,99.82
2022-10-18T02:33:17.932Z,100.00
2022-10-18T02:35:48.309Z,99.85
2022-10-18T02:38:14.970Z,99.35
2022-10-18T02:40:41.697Z,99.35
2022-10-18T02:43:08.308Z,98.57
2022-10-18T02:45:35.245Z,98.92
2022-10-18T02:48:01.786Z,99.09
2022-10-18T02:50:28.408Z,98.39
2022-10-18T02:52:54.994Z,98.46
2022-10-18T02:55:21.634Z,98.17
2022-10-18T02:57:48.303Z,98.91
2022-10-18T03:00:15.346Z,98.39
2022-10-18T03:02:42.010Z,98.75
2022-10-18T03:05:08.648Z,99.07
2022-10-18T03:07:35.477Z,98.51
2022-10-18T03:10:02.209Z,99.21
2022-10-18T03:12:28.842Z,99.53
2022-10-18T03:14:55.433Z,98.98
2022-10-18T03:17:22.098Z,99.75
2022-10-18T03:19:48.764Z,99.21
2022-10-18T03:22:15.410Z,99.31
2022-10-18T03:24:42.101Z,100.00
2022-10-18T03:27:08.790Z,100.00
2022-10-18T03:29:35.449Z,100.00
2022-10-18T03:32:02.044Z,100.00
2022-10-18T03:34:28.688Z,100.00
2022-10-18T03:36:55.331Z,100.00
2022-10-18T03:39:21.923Z,100.00
2022-10-18T03:41:48.518Z,100.00
2022-10-18T03:44:15.248Z,100.00
2022-10-18T03:46:41.874Z,100.00
2022-10-18T03:49:08.441Z,100.00
2022-10-18T03:51:35.014Z,100.00
2022-10-18T03:54:01.693Z,100.00
2022-10-18T03:56:28.414Z,100.00
2022-10-18T03:58:55.065Z,100.00
2022-10-18T04:01:21.777Z,100.00
2022-10-18T04:03:48.405Z,100.00
2022-10-18T04:06:15.103Z,100.00
2022-10-18T04:08:41.712Z,100.00
2022-10-18T04:11:08.371Z,100.00
2022-10-18T04:13:35.311Z,100.00
2022-10-18T04:16:01.841Z,100.00
2022-10-18T04:18:28.469Z,100.00
2022-10-18T04:20:55.154Z,100.00
2022-10-18T04:23:21.743Z,100.00
2022-10-18T04:25:49.083Z,100.00
2022-10-18T04:28:15.951Z,100.00
2022-10-18T04:30:42.606Z,100.00
2022-10-18T04:33:09.165Z,100.00
2022-10-18T04:35:35.754Z,100.00
2022-10-18T04:38:02.347Z,100.00
2022-10-18T04:40:28.991Z,100.00
2022-10-18T04:42:55.866Z,100.00
2022-10-18T04:45:24.075Z,100.00
2022-10-18T04:47:50.930Z,100.00
2022-10-18T04:50:17.522Z,100.00
2022-10-18T04:52:44.216Z,100.00
2022-10-18T04:55:10.899Z,100.00
2022-10-18T04:57:37.539Z,100.00
2022-10-18T05:00:04.932Z,100.00
2022-10-18T05:02:31.937Z,100.00
2022-10-18T05:04:58.742Z,100.00
2022-10-18T05:07:25.498Z,100.00
2022-10-18T05:09:52.111Z,100.00
2022-10-18T05:12:18.749Z,100.00
2022-10-18T05:14:45.409Z,100.00
2022-10-18T05:17:12.015Z,99.71
2022-10-18T05:19:38.694Z,100.00
2022-10-18T05:22:05.372Z,99.69
2022-10-18T05:24:32.129Z,99.89
2022-10-18T05:26:58.777Z,100.00
2022-10-18T05:29:25.579Z,100.00
2022-10-18T05:31:52.493Z,100.00
2022-10-18T05:34:19.038Z,100.00
2022-10-18T05:36:45.743Z,100.00
2022-10-18T05:39:12.384Z,100.00
2022-10-18T05:41:38.961Z,100.00
2022-10-18T05:44:05.816Z,100.00
2022-10-18T05:46:32.497Z,100.00
2022-10-18T05:48:59.434Z,100.00
2022-10-18T05:51:26.089Z,100.00
2022-10-18T05:53:52.654Z,100.00
2022-10-18T05:56:19.304Z,100.00
2022-10-18T05:58:50.194Z,100.00
2022-10-18T06:01:16.878Z,100.00
2022-10-18T06:03:43.535Z,100.00
2022-10-18T06:06:11.044Z,99.76
2022-10-18T06:08:38.083Z,99.53
2022-10-18T06:11:07.753Z,99.51
2022-10-18T06:13:34.735Z,99.45
2022-10-18T06:16:01.351Z,99.23
2022-10-18T06:18:28.021Z,99.51
2022-10-18T06:20:58.416Z,99.98
2022-10-18T06:23:26.383Z,99.98
2022-10-18T06:25:53.041Z,99.21
2022-10-18T06:28:19.675Z,99.99
2022-10-18T06:30:46.978Z,99.55
2022-10-18T06:33:13.539Z,99.25
2022-10-18T06:35:40.132Z,99.59
2022-10-18T06:38:06.729Z,99.21
2022-10-18T06:40:33.373Z,99.37
2022-10-18T06:43:00.685Z,98.96
2022-10-18T06:45:37.296Z,99.67
2022-10-18T06:48:04.035Z,99.27
2022-10-18T06:50:30.733Z,99.69
2022-10-18T06:52:57.876Z,100.00
2022-10-18T06:55:24.479Z,100.00
2022-10-18T06:57:51.820Z,100.00
2022-10-18T07:00:18.501Z,100.00
2022-10-18T07:02:45.085Z,99.79
2022-10-18T07:05:11.635Z,99.80
2022-10-18T07:07:38.345Z,99.28
2022-10-18T07:10:05.481Z,99.39
2022-10-18T07:12:32.355Z,98.89
2022-10-18T07:14:59.036Z,98.71
2022-10-18T07:17:25.652Z,98.52
2022-10-18T07:19:52.298Z,98.72
2022-10-18T07:22:18.858Z,98.93
2022-10-18T07:24:45.558Z,98.36
2022-10-18T07:27:12.133Z,98.91
2022-10-18T07:29:38.671Z,98.50
2022-10-18T07:32:05.390Z,98.56
2022-10-18T07:34:31.931Z,99.47
2022-10-18T07:36:58.535Z,99.18
2022-10-18T07:39:25.107Z,99.44
2022-10-18T07:41:51.621Z,99.71
2022-10-18T07:44:18.154Z,99.93
2022-10-18T07:46:44.703Z,100.00
2022-10-18T07:49:11.781Z,100.00
2022-10-18T07:51:38.432Z,100.00
2022-10-18T07:54:05.773Z,99.99
2022-10-18T07:56:32.282Z,100.00
2022-10-18T07:58:58.831Z,99.88
2022-10-18T08:01:25.682Z,99.67
2022-10-18T08:03:52.442Z,98.89
2022-10-18T08:06:19.278Z,98.52
2022-10-18T08:08:45.846Z,98.27
2022-10-18T08:11:20.063Z,97.73
2022-10-18T08:13:46.872Z,98.50
2022-10-18T08:16:15.527Z,98.99
2022-10-18T08:18:42.112Z,98.90
2022-10-18T08:21:10.059Z,98.31
2022-10-18T08:23:37.010Z,97.56
2022-10-18T08:26:11.431Z,97.46
2022-10-18T08:28:38.020Z,96.81
2022-10-18T08:31:05.800Z,96.65
2022-10-18T08:33:32.816Z,96.03
2022-10-18T08:36:00.543Z,96.25
2022-10-18T08:38:30.689Z,96.58
2022-10-18T08:40:59.972Z,95.77
2022-10-18T08:43:40.711Z,95.74
2022-10-18T08:46:10.885Z,94.44
2022-10-18T08:48:40.264Z,92.49
2022-10-18T08:51:07.342Z,92.10
2022-10-18T08:53:40.093Z,91.53
2022-10-18T08:56:15.868Z,90.37
2022-10-18T08:58:45.647Z,89.56
2022-10-18T09:01:39.603Z,90.70
2022-10-18T09:04:34.162Z,91.26
2022-10-18T09:07:13.743Z,89.54
2022-10-18T09:10:00.618Z,88.20
2022-10-18T09:12:30.389Z,84.49
2022-10-18T09:15:17.041Z,83.23
2022-10-18T09:18:18.733Z,83.96
2022-10-18T09:20:49.855Z,84.17
2022-10-18T09:23:20.619Z,86.01
2022-10-18T09:25:48.897Z,86.28
2022-10-18T09:28:36.340Z,86.27
2022-10-18T09:31:23.316Z,87.50
2022-10-18T09:33:54.331Z,86.40
2022-10-18T09:36:28.375Z,87.72
2022-10-18T09:39:01.500Z,86.99
2022-10-18T09:41:31.154Z,87.38
2022-10-18T09:44:10.528Z,86.34
2022-10-18T09:46:38.953Z,86.71
2022-10-18T09:49:16.387Z,86.03
2022-10-18T09:51:43.193Z,86.54
2022-10-18T09:54:21.806Z,86.61
2022-10-18T09:57:13.860Z,84.71
2022-10-18T09:59:42.618Z,83.37
2022-10-18T10:02:16.910Z,83.71
2022-10-18T10:04:43.666Z,85.55
2022-10-18T10:07:34.928Z,78.91
2022-10-18T10:10:17.580Z,79.01
2022-10-18T10:12:44.198Z,75.06
2022-10-18T10:15:27.019Z,74.19
2022-10-18T10:17:57.669Z,73.44
2022-10-18T10:20:37.694Z,74.93
2022-10-18T10:23:16.141Z,70.74
2022-10-18T10:25:42.725Z,69.67
2022-10-18T10:28:16.714Z,70.24
2022-10-18T10:30:43.255Z,71.33
2022-10-18T10:33:32.384Z,69.04
2022-10-18T10:35:59.719Z,68.09
2022-10-18T10:38:27.426Z,69.79
2022-10-18T10:40:54.107Z,68.39
2022-10-18T10:43:39.993Z,72.33
2022-10-18T10:46:14.455Z,69.02
2022-10-18T10:49:00.391Z,71.15
2022-10-18T10:51:39.110Z,71.36
2022-10-18T10:54:16.178Z,71.89
2022-10-18T10:56:58.463Z,72.65
2022-10-18T10:59:26.033Z,73.77
2022-10-18T11:02:14.029Z,74.22
2022-10-18T11:04:41.011Z,74.82
2022-10-18T11:07:27.600Z,74.47
2022-10-18T11:10:22.203Z,74.18
2022-10-18T11:13:10.155Z,73.86
2022-10-18T11:15:39.279Z,74.19
2022-10-18T11:18:29.470Z,74.48
2022-10-18T11:21:09.843Z,74.87
2022-10-18T11:23:40.402Z,75.05
2022-10-18T11:26:13.074Z,74.51
2022-10-18T11:28:42.469Z,75.25
2022-10-18T11:31:27.155Z,72.91
2022-10-18T11:34:15.675Z,73.75
2022-10-18T11:37:22.576Z,71.68
2022-10-18T11:40:35.153Z,73.36
2022-10-18T11:43:30.275Z,73.75
2022-10-18T11:46:29.756Z,74.90
2022-10-18T11:49:03.530Z,74.12
2022-10-18T11:51:56.037Z,73.86
2022-10-18T11:54:51.346Z,71.78
2022-10-18T11:57:44.118Z,73.22
2022-10-18T12:00:23.137Z,72.77
2022-10-18T12:02:55.718Z,71.09
2022-10-18T12:05:24.341Z,72.30
2022-10-18T12:08:23.375Z,70.75
2022-10-18T12:11:04.596Z,73.12
2022-10-18T12:13:49.130Z,70.19
2022-10-18T12:16:16.285Z,70.02
2022-10-18T12:19:07.197Z,71.48
2022-10-18T12:21:34.193Z,73.03
2022-10-18T12:24:17.384Z,71.93
2022-10-18T12:26:44.017Z,71.44
2022-10-18T12:29:32.470Z,73.35
2022-10-18T12:32:01.564Z,73.41
2022-10-18T12:34:40.724Z,73.51
2022-10-18T12:37:44.240Z,72.45
2022-10-18T12:40:25.506Z,72.76
2022-10-18T12:42:52.348Z,73.01
2022-10-18T12:45:30.135Z,72.66
2022-10-18T12:47:59.812Z,72.61
2022-10-18T12:50:31.431Z,73.09
2022-10-18T12:53:20.793Z,72.64
2022-10-18T12:55:51.185Z,73.21
2022-10-18T12:58:26.038Z,72.44
2022-10-18T13:00:54.332Z,71.57
2022-10-18T13:03:20.942Z,71.49
2022-10-18T13:05:55.915Z,71.52
2022-10-18T13:08:40.487Z,72.42
2022-10-18T13:11:10.323Z,71.75
2022-10-18T13:13:58.311Z,72.04
2022-10-18T13:16:43.781Z,70.10
2022-10-18T13:19:28.993Z,71.73
2022-10-18T13:22:12.495Z,70.95
2022-10-18T13:24:42.446Z,71.14
2022-10-18T13:27:35.644Z,70.98
2022-10-18T13:30:18.789Z,71.49
2022-10-18T13:33:22.850Z,71.27
2022-10-18T13:35:52.245Z,71.02
2022-10-18T13:38:40.903Z,71.34
2022-10-18T13:41:10.309Z,71.37
2022-10-18T13:43:52.656Z,70.75
2022-10-18T13:46:23.949Z,71.77
2022-10-18T13:48:50.747Z,71.29
2022-10-18T13:51:17.564Z,72.05
2022-10-18T13:53:58.828Z,73.47
2022-10-18T13:56:48.930Z,73.03
2022-10-18T13:59:26.177Z,72.42
2022-10-18T14:02:11.186Z,73.71
2022-10-18T14:04:43.669Z,73.08
2022-10-18T14:07:10.328Z,74.09
2022-10-18T14:09:47.842Z,73.80
2022-10-18T14:12:40.868Z,74.04
2022-10-18T14:15:16.299Z,74.79
2022-10-18T14:17:52.946Z,75.05
2022-10-18T14:20:34.594Z,75.98
2022-10-18T14:23:20.398Z,76.91
2022-10-18T14:25:47.136Z,77.37
2022-10-18T14:28:15.633Z,77.97
2022-10-18T14:31:01.175Z,77.64
2022-10-18T14:33:37.359Z,77.88
2022-10-18T14:36:08.091Z,78.28
2022-10-18T14:38:39.145Z,76.49
2022-10-18T14:41:26.940Z,75.79
2022-10-18T14:44:09.487Z,76.74
2022-10-18T14:46:44.618Z,76.31
2022-10-18T14:49:11.401Z,76.27
2022-10-18T14:51:39.112Z,76.32
2022-10-18T14:54:06.948Z,77.41
2022-10-18T14:56:37.911Z,77.73
2022-10-18T14:59:05.108Z,78.35
2022-10-18T15:02:23.518Z,80.61
2022-10-18T15:05:04.937Z,82.23
2022-10-18T15:07:32.121Z,83.32
2022-10-18T15:10:00.156Z,83.97
2022-10-18T15:12:27.114Z,84.61
2022-10-18T15:14:56.735Z,84.58
2022-10-18T15:17:30.777Z,85.00
2022-10-18T15:20:05.000Z,85.67
2022-10-18T15:22:33.449Z,85.94
2022-10-18T15:25:11.478Z,86.38
2022-10-18T15:27:38.907Z,86.53
2022-10-18T15:30:20.475Z,86.25
2022-10-18T15:32:51.525Z,86.70
2022-10-18T15:35:38.460Z,86.00
2022-10-18T15:38:27.784Z,85.83
2022-10-18T15:40:54.847Z,86.65
2022-10-18T15:43:24.539Z,86.48
2022-10-18T15:45:52.756Z,86.44
2022-10-18T15:48:36.170Z,86.69
2022-10-18T15:51:06.988Z,86.76
2022-10-18T15:53:41.713Z,86.79
2022-10-18T15:56:30.645Z,87.06
2022-10-18T15:59:00.604Z,87.21
2022-10-18T16:01:36.615Z,87.39
2022-10-18T16:04:24.917Z,88.22
2022-10-18T16:06:51.666Z,88.40
2022-10-18T16:09:19.934Z,89.20
2022-10-18T16:11:47.388Z,89.06
2022-10-18T16:14:14.301Z,89.15
2022-10-18T16:16:41.083Z,89.32
2022-10-18T16:19:08.243Z,89.66
2022-10-18T16:21:36.493Z,89.57
2022-10-18T16:24:03.658Z,89.53
2022-10-18T16:26:32.881Z,89.40
2022-10-18T16:28:59.647Z,90.30
2022-10-18T16:31:28.280Z,90.90
2022-10-18T16:33:57.686Z,90.78
2022-10-18T16:36:31.372Z,91.30
2022-10-18T16:38:58.515Z,92.04
2022-10-18T16:41:38.275Z,91.77
2022-10-18T16:44:06.454Z,91.26
2022-10-18T16:46:36.141Z,91.45
2022-10-18T16:49:03.145Z,92.37
2022-10-18T16:51:29.720Z,93.24
2022-10-18T16:53:56.363Z,93.42
2022-10-18T16:56:28.506Z,92.43
2022-10-18T16:58:55.074Z,93.51
2022-10-18T17:01:22.473Z,94.29
2022-10-18T17:03:49.153Z,93.28
2022-10-18T17:06:18.016Z,94.68
2022-10-18T17:08:45.011Z,94.32
2022-10-18T17:11:11.843Z,94.66
2022-10-18T17:13:38.596Z,95.12
2022-10-18T17:16:05.463Z,94.78
2022-10-18T17:18:32.218Z,94.78
2022-10-18T17:21:01.878Z,94.80
2022-10-18T17:23:31.414Z,94.39
2022-10-18T17:26:08.579Z,95.02
2022-10-18T17:28:44.983Z,95.63
2022-10-18T17:31:12.313Z,95.12
2022-10-18T17:33:39.270Z,94.85
2022-10-18T17:36:06.192Z,94.76
2022-10-18T17:38:42.576Z,95.22
2022-10-18T17:41:17.043Z,95.43
2022-10-18T17:43:44.367Z,95.30
2022-10-18T17:46:15.103Z,95.10
2022-10-18T17:48:42.141Z,94.63
2022-10-18T17:51:13.016Z,96.23
2022-10-18T17:53:41.157Z,96.13
2022-10-18T17:56:08.128Z,96.25
2022-10-18T17:58:35.149Z,96.07
2022-10-18T18:01:12.100Z,95.76
2022-10-18T18:03:38.933Z,95.34
2022-10-18T18:06:36.126Z,95.97
2022-10-18T18:09:07.471Z,96.66
2022-10-18T18:11:35.217Z,97.26
2022-10-18T18:14:01.963Z,96.66
2022-10-18T18:16:29.555Z,96.36
2022-10-18T18:18:57.188Z,96.59
2022-10-18T18:21:29.959Z,96.26
2022-10-18T18:23:57.126Z,96.57
2022-10-18T18:26:24.002Z,96.95
2022-10-18T18:28:50.761Z,97.25
2022-10-18T18:31:22.002Z,96.88
2022-10-18T18:33:48.667Z,97.23
2022-10-18T18:36:15.332Z,96.76
2022-10-18T18:38:42.082Z,96.60
2022-10-18T18:41:18.720Z,96.63
2022-10-18T18:43:56.210Z,96.48
2022-10-18T18:46:23.346Z,96.83
2022-10-18T18:48:51.882Z,96.71
2022-10-18T18:51:19.514Z,96.48
2022-10-18T18:53:46.390Z,96.32
2022-10-18T18:56:18.334Z,96.59
2022-10-18T18:58:47.390Z,96.93
2022-10-18T19:01:25.105Z,96.84
2022-10-18T19:03:53.455Z,97.28
2022-10-18T19:06:24.778Z,97.01
2022-10-18T19:08:51.483Z,97.25
2022-10-18T19:11:19.469Z,97.51
2022-10-18T19:13:48.281Z,97.46
2022-10-18T19:16:28.667Z,98.42
2022-10-18T19:19:17.045Z,97.66
2022-10-18T19:21:52.076Z,97.71
2022-10-18T19:24:19.501Z,97.06
2022-10-18T19:26:46.946Z,97.26
2022-10-18T19:29:18.094Z,97.67
2022-10-18T19:31:44.831Z,97.54
2022-10-18T19:34:12.313Z,98.07
2022-10-18T19:36:39.536Z,97.73
2022-10-18T19:39:07.227Z,97.88
2022-10-18T19:41:33.728Z,97.84
2022-10-18T19:44:00.361Z,98.24
2022-10-18T19:46:26.977Z,98.14
2022-10-18T19:48:53.575Z,98.00
2022-10-18T19:51:23.002Z,98.14
2022-10-18T19:53:51.884Z,97.34
2022-10-18T19:56:20.952Z,97.43
2022-10-18T19:58:47.728Z,97.30
2022-10-18T20:01:14.618Z,97.52
2022-10-18T20:03:41.163Z,98.35
2022-10-18T20:06:07.864Z,99.14
2022-10-18T20:08:34.913Z,99.88
2022-10-18T20:11:02.531Z,99.33
2022-10-18T20:13:29.152Z,97.57
2022-10-18T20:15:55.814Z,96.50
2022-10-18T20:18:22.343Z,96.98
2022-10-18T20:20:48.969Z,97.43
2022-10-18T20:23:18.536Z,97.57
2022-10-18T20:26:04.740Z,97.10
2022-10-18T20:28:31.363Z,97.53
2022-10-18T20:31:11.115Z,97.46
2022-10-18T20:33:37.722Z,97.35
2022-10-18T20:36:11.816Z,97.73
2022-10-18T20:38:38.992Z,98.08
2022-10-18T20:41:06.927Z,98.38
2022-10-18T20:43:34.850Z,98.79
2022-10-18T20:46:01.489Z,99.79
2022-10-18T20:48:28.124Z,99.08
2022-10-18T20:50:54.668Z,98.08
2022-10-18T20:53:21.214Z,97.73
2022-10-18T20:55:48.367Z,97.66
2022-10-18T20:58:22.194Z,98.08
2022-10-18T21:00:55.817Z,98.11
2022-10-18T21:03:22.489Z,98.42
2022-10-18T21:05:52.335Z,98.37
2022-10-18T21:08:19.833Z,98.63
2022-10-18T21:10:52.646Z,98.15
2022-10-18T21:13:24.943Z,97.59
2022-10-18T21:16:00.581Z,97.16
2022-10-18T21:18:31.551Z,97.68
2022-10-18T21:23:38.503Z,98.16
2022-10-18T21:26:16.436Z,97.54
2022-10-18T21:28:47.956Z,97.62
2022-10-18T21:31:16.494Z,97.38
2022-10-18T21:33:43.335Z,97.63
2022-10-18T21:36:13.342Z,97.74
2022-10-18T21:38:39.900Z,98.05
2022-10-18T21:41:10.132Z,98.32
2022-10-18T21:43:40.051Z,97.64
2022-10-18T21:46:06.903Z,97.75
2022-10-18T21:48:33.544Z,97.84
2022-10-18T21:51:09.731Z,98.39
2022-10-18T21:53:36.928Z,98.55
2022-10-18T21:56:07.625Z,99.37
2022-10-18T21:58:35.256Z,98.93
2022-10-18T22:01:24.781Z,98.84
2022-10-18T22:03:52.513Z,98.99
2022-10-18T22:06:19.256Z,98.41
2022-10-18T22:08:53.226Z,98.86
2022-10-18T22:11:21.898Z,98.21
2022-10-18T22:13:48.725Z,98.55
2022-10-18T22:16:15.641Z,99.09
2022-10-18T22:18:42.584Z,98.83
2022-10-18T22:21:09.974Z,98.98
2022-10-18T22:23:44.598Z,98.99
2022-10-18T22:26:12.962Z,98.54
2022-10-18T22:28:40.190Z,98.20
2022-10-18T22:31:06.817Z,98.79
2022-10-18T22:33:33.434Z,98.51
2022-10-18T22:36:00.210Z,98.69
2022-10-18T22:38:27.880Z,97.92
2022-10-18T22:40:54.424Z,97.86
2022-10-18T22:43:21.046Z,98.20
2022-10-18T22:45:47.588Z,98.40
2022-10-18T22:48:21.501Z,98.91
2022-10-18T22:50:48.075Z,99.04
2022-10-18T22:53:17.455Z,99.20
2022-10-18T22:55:44.341Z,99.36
2022-10-18T22:58:15.684Z,99.02
2022-10-18T23:00:42.481Z,98.91
2022-10-18T23:03:10.802Z,98.78
2022-10-18T23:05:38.632Z,98.60
2022-10-18T23:08:09.518Z,98.62
2022-10-18T23:10:39.947Z,99.36
2022-10-18T23:13:06.668Z,99.51
2022-10-18T23:15:39.013Z,99.13
2022-10-18T23:18:05.770Z,99.90
2022-10-18T23:20:32.281Z,99.01
2022-10-18T23:22:58.773Z,98.94
2022-10-18T23:25:25.301Z,99.36
2022-10-18T23:27:51.848Z,99.88
2022-10-18T23:30:18.549Z,99.63
2022-10-18T23:32:45.145Z,99.07
2022-10-18T23:35:11.725Z,99.24
2022-10-18T23:37:41.894Z,99.04
2022-10-18T23:40:09.319Z,99.07
2022-10-18T23:42:36.081Z,98.93
2022-10-18T23:45:02.908Z,98.48
2022-10-18T23:47:29.670Z,98.36
2022-10-18T23:49:56.346Z,98.36
2022-10-18T23:52:24.182Z,97.97
2022-10-18T23:54:51.051Z,98.33
2022-10-18T23:57:17.530Z,98.21
2022-10-18T23:59:44.013Z,98.30
